sensor_id;sensor_type;location;lat;lon;timestamp;P1;durP1;ratioP1;P2;durP2;ratioP2
9424;SDS011;17139;52.140;11.636;2023-06-04T00:01:00;4.53;;;4.13;;
9424;SDS011;17139;52.140;11.636;2023-06-04T00:03:27;7.03;;;3.63;;
9424;SDS011;17139;52.140;11.636;2023-06-04T00:05:55;4.95;;;4.65;;
9424;SDS011;17139;52.140;11.636;2023-06-04T00:08:22;6.47;;;4.40;;
9424;SDS011;17139;52.140;11.636;2023-06-04T00:10:49;4.73;;;4.43;;
9424;SDS011;17139;52.140;11.636;2023-06-04T00:13:16;5.53;;;5.00;;
9424;SDS011;17139;52.140;11.636;2023-06-04T00:15:45;3.33;;;3.13;;
9424;SDS011;17139;52.140;11.636;2023-06-04T00:18:12;3.90;;;3.60;;
9424;SDS011;17139;52.140;11.636;2023-06-04T00:20:39;3.80;;;3.50;;
9424;SDS011;17139;52.140;11.636;2023-06-04T00:23:06;4.47;;;4.23;;
9424;SDS011;17139;52.140;11.636;2023-06-04T00:25:33;5.45;;;4.82;;
9424;SDS011;17139;52.140;11.636;2023-06-04T00:28:01;5.40;;;4.63;;
9424;SDS011;17139;52.140;11.636;2023-06-04T00:30:28;6.13;;;5.70;;
9424;SDS011;17139;52.140;11.636;2023-06-04T00:32:56;5.40;;;5.00;;
9424;SDS011;17139;52.140;11.636;2023-06-04T00:35:23;4.10;;;3.90;;
9424;SDS011;17139;52.140;11.636;2023-06-04T00:37:50;4.33;;;4.03;;
9424;SDS011;17139;52.140;11.636;2023-06-04T00:40:17;3.97;;;3.67;;
9424;SDS011;17139;52.140;11.636;2023-06-04T00:42:44;4.63;;;4.33;;
9424;SDS011;17139;52.140;11.636;2023-06-04T00:45:11;4.47;;;4.07;;
9424;SDS011;17139;52.140;11.636;2023-06-04T00:47:38;6.70;;;4.60;;
9424;SDS011;17139;52.140;11.636;2023-06-04T00:50:08;4.88;;;4.47;;
9424;SDS011;17139;52.140;11.636;2023-06-04T00:52:36;5.10;;;4.70;;
9424;SDS011;17139;52.140;11.636;2023-06-04T00:55:03;4.37;;;4.13;;
9424;SDS011;17139;52.140;11.636;2023-06-04T00:57:30;3.83;;;3.63;;
9424;SDS011;17139;52.140;11.636;2023-06-04T00:59:57;4.60;;;3.87;;
9424;SDS011;17139;52.140;11.636;2023-06-04T01:02:24;4.20;;;2.60;;
9424;SDS011;17139;52.140;11.636;2023-06-04T01:04:57;4.47;;;4.27;;
9424;SDS011;17139;52.140;11.636;2023-06-04T01:07:30;6.68;;;5.60;;
9424;SDS011;17139;52.140;11.636;2023-06-04T01:09:57;7.60;;;5.00;;
9424;SDS011;17139;52.140;11.636;2023-06-04T01:12:25;4.93;;;4.60;;
9424;SDS011;17139;52.140;11.636;2023-06-04T01:14:52;4.50;;;4.10;;
9424;SDS011;17139;52.140;11.636;2023-06-04T01:17:19;5.60;;;4.57;;
9424;SDS011;17139;52.140;11.636;2023-06-04T01:20:01;9.37;;;4.70;;
9424;SDS011;17139;52.140;11.636;2023-06-04T01:22:39;4.33;;;3.20;;
9424;SDS011;17139;52.140;11.636;2023-06-04T01:25:12;3.37;;;3.10;;
9424;SDS011;17139;52.140;11.636;2023-06-04T01:27:46;4.80;;;4.57;;
9424;SDS011;17139;52.140;11.636;2023-06-04T01:30:15;4.97;;;3.83;;
9424;SDS011;17139;52.140;11.636;2023-06-04T01:32:43;3.87;;;3.57;;
9424;SDS011;17139;52.140;11.636;2023-06-04T01:35:11;3.67;;;3.17;;
9424;SDS011;17139;52.140;11.636;2023-06-04T01:37:40;2.80;;;2.70;;
9424;SDS011;17139;52.140;11.636;2023-06-04T01:40:07;3.13;;;2.93;;
9424;SDS011;17139;52.140;11.636;2023-06-04T01:42:35;3.60;;;3.00;;
9424;SDS011;17139;52.140;11.636;2023-06-04T01:45:02;3.42;;;3.13;;
9424;SDS011;17139;52.140;11.636;2023-06-04T01:47:30;2.87;;;2.77;;
9424;SDS011;17139;52.140;11.636;2023-06-04T01:49:57;3.13;;;2.93;;
9424;SDS011;17139;52.140;11.636;2023-06-04T01:52:24;5.47;;;2.78;;
9424;SDS011;17139;52.140;11.636;2023-06-04T01:54:53;2.77;;;2.57;;
9424;SDS011;17139;52.140;11.636;2023-06-04T01:57:20;3.60;;;3.23;;
9424;SDS011;17139;52.140;11.636;2023-06-04T01:59:48;3.77;;;2.90;;
9424;SDS011;17139;52.140;11.636;2023-06-04T02:02:15;2.73;;;2.63;;
9424;SDS011;17139;52.140;11.636;2023-06-04T02:04:43;3.67;;;2.60;;
9424;SDS011;17139;52.140;11.636;2023-06-04T02:07:11;2.70;;;2.60;;
9424;SDS011;17139;52.140;11.636;2023-06-04T02:09:42;2.70;;;2.60;;
9424;SDS011;17139;52.140;11.636;2023-06-04T02:12:11;6.00;;;3.20;;
9424;SDS011;17139;52.140;11.636;2023-06-04T02:14:38;4.90;;;3.60;;
9424;SDS011;17139;52.140;11.636;2023-06-04T02:17:07;6.80;;;3.17;;
9424;SDS011;17139;52.140;11.636;2023-06-04T02:19:37;3.20;;;2.83;;
9424;SDS011;17139;52.140;11.636;2023-06-04T02:22:05;3.30;;;3.10;;
9424;SDS011;17139;52.140;11.636;2023-06-04T02:24:32;2.90;;;2.70;;
9424;SDS011;17139;52.140;11.636;2023-06-04T02:26:59;2.53;;;2.43;;
9424;SDS011;17139;52.140;11.636;2023-06-04T02:29:28;3.43;;;2.70;;
9424;SDS011;17139;52.140;11.636;2023-06-04T02:31:55;2.88;;;2.67;;
9424;SDS011;17139;52.140;11.636;2023-06-04T02:34:22;2.90;;;2.70;;
9424;SDS011;17139;52.140;11.636;2023-06-04T02:36:50;2.13;;;2.03;;
9424;SDS011;17139;52.140;11.636;2023-06-04T02:39:17;2.60;;;2.50;;
9424;SDS011;17139;52.140;11.636;2023-06-04T02:41:45;2.33;;;2.23;;
9424;SDS011;17139;52.140;11.636;2023-06-04T02:44:12;2.53;;;2.33;;
9424;SDS011;17139;52.140;11.636;2023-06-04T02:46:40;2.57;;;2.20;;
9424;SDS011;17139;52.140;11.636;2023-06-04T02:49:08;2.33;;;2.13;;
9424;SDS011;17139;52.140;11.636;2023-06-04T02:51:39;3.00;;;2.80;;
9424;SDS011;17139;52.140;11.636;2023-06-04T02:54:06;2.60;;;2.43;;
9424;SDS011;17139;52.140;11.636;2023-06-04T02:56:34;2.40;;;2.10;;
9424;SDS011;17139;52.140;11.636;2023-06-04T02:59:02;3.47;;;2.78;;
9424;SDS011;17139;52.140;11.636;2023-06-04T03:01:30;3.13;;;2.93;;
9424;SDS011;17139;52.140;11.636;2023-06-04T03:03:58;2.40;;;2.30;;
9424;SDS011;17139;52.140;11.636;2023-06-04T03:06:28;3.17;;;3.03;;
9424;SDS011;17139;52.140;11.636;2023-06-04T03:08:56;2.33;;;2.23;;
9424;SDS011;17139;52.140;11.636;2023-06-04T03:11:23;3.07;;;2.60;;
9424;SDS011;17139;52.140;11.636;2023-06-04T03:13:50;2.47;;;2.37;;
9424;SDS011;17139;52.140;11.636;2023-06-04T03:16:18;1.90;;;1.90;;
9424;SDS011;17139;52.140;11.636;2023-06-04T03:18:45;2.67;;;2.58;;
9424;SDS011;17139;52.140;11.636;2023-06-04T03:21:14;2.33;;;2.23;;
9424;SDS011;17139;52.140;11.636;2023-06-04T03:23:43;2.53;;;2.33;;
9424;SDS011;17139;52.140;11.636;2023-06-04T03:26:10;6.77;;;2.57;;
9424;SDS011;17139;52.140;11.636;2023-06-04T03:28:38;2.90;;;2.57;;
9424;SDS011;17139;52.140;11.636;2023-06-04T03:31:05;3.37;;;2.27;;
9424;SDS011;17139;52.140;11.636;2023-06-04T03:33:32;4.47;;;2.10;;
9424;SDS011;17139;52.140;11.636;2023-06-04T03:35:59;2.57;;;2.47;;
9424;SDS011;17139;52.140;11.636;2023-06-04T03:38:28;2.30;;;2.20;;
9424;SDS011;17139;52.140;11.636;2023-06-04T03:40:55;3.05;;;2.78;;
9424;SDS011;17139;52.140;11.636;2023-06-04T03:43:23;2.30;;;1.90;;
9424;SDS011;17139;52.140;11.636;2023-06-04T03:45:50;2.17;;;2.07;;
9424;SDS011;17139;52.140;11.636;2023-06-04T03:48:17;2.23;;;2.00;;
9424;SDS011;17139;52.140;11.636;2023-06-04T03:50:44;2.20;;;2.10;;
9424;SDS011;17139;52.140;11.636;2023-06-04T03:53:12;1.93;;;1.90;;
9424;SDS011;17139;52.140;11.636;2023-06-04T03:55:41;2.20;;;2.00;;
9424;SDS011;17139;52.140;11.636;2023-06-04T03:58:08;3.67;;;2.58;;
9424;SDS011;17139;52.140;11.636;2023-06-04T04:00:36;2.27;;;2.17;;
9424;SDS011;17139;52.140;11.636;2023-06-04T04:03:03;2.30;;;2.20;;
9424;SDS011;17139;52.140;11.636;2023-06-04T04:05:34;2.60;;;2.50;;
9424;SDS011;17139;52.140;11.636;2023-06-04T04:08:02;2.37;;;2.27;;
9424;SDS011;17139;52.140;11.636;2023-06-04T04:10:29;2.80;;;2.60;;
9424;SDS011;17139;52.140;11.636;2023-06-04T04:12:58;2.03;;;1.93;;
9424;SDS011;17139;52.140;11.636;2023-06-04T04:15:25;2.17;;;2.07;;
9424;SDS011;17139;52.140;11.636;2023-06-04T04:17:51;2.40;;;2.30;;
9424;SDS011;17139;52.140;11.636;2023-06-04T04:20:19;2.60;;;2.40;;
9424;SDS011;17139;52.140;11.636;2023-06-04T04:22:46;2.50;;;2.30;;
9424;SDS011;17139;52.140;11.636;2023-06-04T04:25:13;2.83;;;1.93;;
9424;SDS011;17139;52.140;11.636;2023-06-04T04:27:40;2.60;;;2.40;;
9424;SDS011;17139;52.140;11.636;2023-06-04T04:30:09;2.13;;;1.97;;
9424;SDS011;17139;52.140;11.636;2023-06-04T04:32:37;3.00;;;2.87;;
9424;SDS011;17139;52.140;11.636;2023-06-04T04:35:05;2.50;;;2.40;;
9424;SDS011;17139;52.140;11.636;2023-06-04T04:37:34;2.47;;;2.27;;
9424;SDS011;17139;52.140;11.636;2023-06-04T04:40:05;5.57;;;5.03;;
9424;SDS011;17139;52.140;11.636;2023-06-04T04:42:35;2.87;;;2.67;;
9424;SDS011;17139;52.140;11.636;2023-06-04T04:45:02;2.65;;;2.50;;
9424;SDS011;17139;52.140;11.636;2023-06-04T04:47:30;2.90;;;2.70;;
9424;SDS011;17139;52.140;11.636;2023-06-04T04:49:57;3.00;;;2.75;;
9424;SDS011;17139;52.140;11.636;2023-06-04T04:52:24;2.40;;;2.30;;
9424;SDS011;17139;52.140;11.636;2023-06-04T04:54:51;4.57;;;2.50;;
9424;SDS011;17139;52.140;11.636;2023-06-04T04:57:21;2.88;;;2.78;;
9424;SDS011;17139;52.140;11.636;2023-06-04T04:59:48;3.00;;;2.80;;
9424;SDS011;17139;52.140;11.636;2023-06-04T05:02:15;2.60;;;2.50;;
9424;SDS011;17139;52.140;11.636;2023-06-04T05:04:43;3.28;;;3.03;;
9424;SDS011;17139;52.140;11.636;2023-06-04T05:07:10;2.70;;;2.60;;
9424;SDS011;17139;52.140;11.636;2023-06-04T05:09:37;2.50;;;2.40;;
9424;SDS011;17139;52.140;11.636;2023-06-04T05:12:05;2.97;;;2.67;;
9424;SDS011;17139;52.140;11.636;2023-06-04T05:14:32;2.85;;;2.63;;
9424;SDS011;17139;52.140;11.636;2023-06-04T05:17:00;3.08;;;2.83;;
9424;SDS011;17139;52.140;11.636;2023-06-04T05:19:28;2.60;;;2.50;;
9424;SDS011;17139;52.140;11.636;2023-06-04T05:21:59;2.60;;;2.50;;
9424;SDS011;17139;52.140;11.636;2023-06-04T05:24:26;3.88;;;2.30;;
9424;SDS011;17139;52.140;11.636;2023-06-04T05:26:54;2.70;;;2.60;;
9424;SDS011;17139;52.140;11.636;2023-06-04T05:29:21;2.65;;;2.55;;
9424;SDS011;17139;52.140;11.636;2023-06-04T05:31:48;3.30;;;2.50;;
9424;SDS011;17139;52.140;11.636;2023-06-04T05:34:15;2.67;;;2.50;;
9424;SDS011;17139;52.140;11.636;2023-06-04T05:36:43;2.42;;;2.33;;
9424;SDS011;17139;52.140;11.636;2023-06-04T05:39:11;2.70;;;2.50;;
9424;SDS011;17139;52.140;11.636;2023-06-04T05:41:39;2.60;;;2.28;;
9424;SDS011;17139;52.140;11.636;2023-06-04T05:44:07;2.70;;;2.60;;
9424;SDS011;17139;52.140;11.636;2023-06-04T05:46:34;2.67;;;2.58;;
9424;SDS011;17139;52.140;11.636;2023-06-04T05:49:02;2.88;;;2.67;;
9424;SDS011;17139;52.140;11.636;2023-06-04T05:51:29;2.90;;;2.70;;
9424;SDS011;17139;52.140;11.636;2023-06-04T05:53:56;2.80;;;2.60;;
9424;SDS011;17139;52.140;11.636;2023-06-04T05:56:24;2.45;;;2.35;;
9424;SDS011;17139;52.140;11.636;2023-06-04T05:58:52;3.40;;;2.63;;
9424;SDS011;17139;52.140;11.636;2023-06-04T06:01:19;4.38;;;2.20;;
9424;SDS011;17139;52.140;11.636;2023-06-04T06:03:46;2.35;;;2.25;;
9424;SDS011;17139;52.140;11.636;2023-06-04T06:06:14;2.35;;;2.20;;
9424;SDS011;17139;52.140;11.636;2023-06-04T06:08:41;2.58;;;2.30;;
9424;SDS011;17139;52.140;11.636;2023-06-04T06:11:08;2.85;;;2.72;;
9424;SDS011;17139;52.140;11.636;2023-06-04T06:13:37;3.55;;;2.53;;
9424;SDS011;17139;52.140;11.636;2023-06-04T06:16:04;2.55;;;2.40;;
9424;SDS011;17139;52.140;11.636;2023-06-04T06:18:31;2.50;;;2.38;;
9424;SDS011;17139;52.140;11.636;2023-06-04T06:20:58;2.47;;;2.30;;
9424;SDS011;17139;52.140;11.636;2023-06-04T06:23:25;2.42;;;2.30;;
9424;SDS011;17139;52.140;11.636;2023-06-04T06:25:52;2.72;;;2.53;;
9424;SDS011;17139;52.140;11.636;2023-06-04T06:28:19;2.60;;;2.50;;
9424;SDS011;17139;52.140;11.636;2023-06-04T06:30:48;2.17;;;2.13;;
9424;SDS011;17139;52.140;11.636;2023-06-04T06:33:15;2.20;;;2.10;;
9424;SDS011;17139;52.140;11.636;2023-06-04T06:35:46;2.40;;;2.20;;
9424;SDS011;17139;52.140;11.636;2023-06-04T06:38:13;2.33;;;2.22;;
9424;SDS011;17139;52.140;11.636;2023-06-04T06:40:40;3.00;;;2.03;;
9424;SDS011;17139;52.140;11.636;2023-06-04T06:43:07;1.95;;;1.95;;
9424;SDS011;17139;52.140;11.636;2023-06-04T06:45:35;1.73;;;1.63;;
9424;SDS011;17139;52.140;11.636;2023-06-04T06:48:03;2.20;;;2.08;;
9424;SDS011;17139;52.140;11.636;2023-06-04T06:50:31;1.67;;;1.58;;
9424;SDS011;17139;52.140;11.636;2023-06-04T06:53:00;2.13;;;1.83;;
9424;SDS011;17139;52.140;11.636;2023-06-04T06:55:27;1.63;;;1.52;;
9424;SDS011;17139;52.140;11.636;2023-06-04T06:57:55;2.00;;;1.60;;
9424;SDS011;17139;52.140;11.636;2023-06-04T07:00:22;1.75;;;1.60;;
9424;SDS011;17139;52.140;11.636;2023-06-04T07:02:49;1.27;;;1.27;;
9424;SDS011;17139;52.140;11.636;2023-06-04T07:05:17;1.45;;;1.45;;
9424;SDS011;17139;52.140;11.636;2023-06-04T07:07:44;1.52;;;1.48;;
9424;SDS011;17139;52.140;11.636;2023-06-04T07:10:11;5.78;;;1.55;;
9424;SDS011;17139;52.140;11.636;2023-06-04T07:12:39;1.50;;;1.50;;
9424;SDS011;17139;52.140;11.636;2023-06-04T07:15:06;1.50;;;1.45;;
9424;SDS011;17139;52.140;11.636;2023-06-04T07:17:34;1.40;;;1.40;;
9424;SDS011;17139;52.140;11.636;2023-06-04T07:20:02;1.20;;;1.20;;
9424;SDS011;17139;52.140;11.636;2023-06-04T07:22:34;1.30;;;1.30;;
9424;SDS011;17139;52.140;11.636;2023-06-04T07:25:01;2.30;;;1.48;;
9424;SDS011;17139;52.140;11.636;2023-06-04T07:27:28;1.67;;;1.50;;
9424;SDS011;17139;52.140;11.636;2023-06-04T07:29:55;1.67;;;1.50;;
9424;SDS011;17139;52.140;11.636;2023-06-04T07:32:25;1.10;;;1.10;;
9424;SDS011;17139;52.140;11.636;2023-06-04T07:34:52;2.63;;;1.05;;
9424;SDS011;17139;52.140;11.636;2023-06-04T07:37:19;1.10;;;0.90;;
9424;SDS011;17139;52.140;11.636;2023-06-04T07:39:48;0.80;;;0.80;;
9424;SDS011;17139;52.140;11.636;2023-06-04T07:42:15;3.03;;;1.00;;
9424;SDS011;17139;52.140;11.636;2023-06-04T07:44:42;1.38;;;1.10;;
9424;SDS011;17139;52.140;11.636;2023-06-04T07:47:09;1.00;;;1.00;;
9424;SDS011;17139;52.140;11.636;2023-06-04T07:49:36;2.55;;;1.13;;
9424;SDS011;17139;52.140;11.636;2023-06-04T07:52:03;0.88;;;0.88;;
9424;SDS011;17139;52.140;11.636;2023-06-04T07:54:30;1.20;;;1.20;;
9424;SDS011;17139;52.140;11.636;2023-06-04T07:56:59;1.00;;;1.00;;
9424;SDS011;17139;52.140;11.636;2023-06-04T07:59:26;1.15;;;1.15;;
9424;SDS011;17139;52.140;11.636;2023-06-04T08:01:54;1.10;;;0.98;;
9424;SDS011;17139;52.140;11.636;2023-06-04T08:04:21;1.70;;;1.40;;
9424;SDS011;17139;52.140;11.636;2023-06-04T08:06:48;1.40;;;1.40;;
9424;SDS011;17139;52.140;11.636;2023-06-04T08:09:16;1.00;;;1.00;;
9424;SDS011;17139;52.140;11.636;2023-06-04T08:11:43;2.13;;;1.30;;
9424;SDS011;17139;52.140;11.636;2023-06-04T08:14:12;1.27;;;1.27;;
9424;SDS011;17139;52.140;11.636;2023-06-04T08:16:39;1.27;;;1.27;;
9424;SDS011;17139;52.140;11.636;2023-06-04T08:19:06;1.10;;;1.10;;
9424;SDS011;17139;52.140;11.636;2023-06-04T08:21:33;1.38;;;1.17;;
9424;SDS011;17139;52.140;11.636;2023-06-04T08:24:01;2.60;;;1.27;;
9424;SDS011;17139;52.140;11.636;2023-06-04T08:26:28;1.17;;;1.17;;
9424;SDS011;17139;52.140;11.636;2023-06-04T08:28:55;1.17;;;0.93;;
9424;SDS011;17139;52.140;11.636;2023-06-04T08:31:24;1.17;;;1.17;;
9424;SDS011;17139;52.140;11.636;2023-06-04T08:33:51;1.10;;;1.10;;
9424;SDS011;17139;52.140;11.636;2023-06-04T08:36:18;1.35;;;1.25;;
9424;SDS011;17139;52.140;11.636;2023-06-04T08:38:45;1.60;;;1.15;;
9424;SDS011;17139;52.140;11.636;2023-06-04T08:41:16;1.17;;;1.17;;
9424;SDS011;17139;52.140;11.636;2023-06-04T08:43:51;1.38;;;1.30;;
9424;SDS011;17139;52.140;11.636;2023-06-04T08:46:21;1.40;;;1.30;;
9424;SDS011;17139;52.140;11.636;2023-06-04T08:48:50;1.33;;;1.25;;
9424;SDS011;17139;52.140;11.636;2023-06-04T08:51:22;1.17;;;1.17;;
9424;SDS011;17139;52.140;11.636;2023-06-04T08:53:49;0.88;;;0.88;;
9424;SDS011;17139;52.140;11.636;2023-06-04T08:56:19;1.05;;;1.05;;
9424;SDS011;17139;52.140;11.636;2023-06-04T08:58:47;1.02;;;1.02;;
9424;SDS011;17139;52.140;11.636;2023-06-04T09:01:15;1.93;;;1.20;;
9424;SDS011;17139;52.140;11.636;2023-06-04T09:03:44;1.25;;;1.25;;
9424;SDS011;17139;52.140;11.636;2023-06-04T09:06:11;1.15;;;1.15;;
9424;SDS011;17139;52.140;11.636;2023-06-04T09:08:39;1.08;;;1.08;;
9424;SDS011;17139;52.140;11.636;2023-06-04T09:11:10;2.20;;;1.10;;
9424;SDS011;17139;52.140;11.636;2023-06-04T09:13:40;2.35;;;1.40;;
9424;SDS011;17139;52.140;11.636;2023-06-04T09:16:09;1.30;;;1.30;;
9424;SDS011;17139;52.140;11.636;2023-06-04T09:18:36;1.10;;;1.10;;
9424;SDS011;17139;52.140;11.636;2023-06-04T09:21:05;0.90;;;0.90;;
9424;SDS011;17139;52.140;11.636;2023-06-04T09:23:34;1.00;;;1.00;;
9424;SDS011;17139;52.140;11.636;2023-06-04T09:26:07;1.40;;;1.40;;
9424;SDS011;17139;52.140;11.636;2023-06-04T09:28:35;1.10;;;1.10;;
9424;SDS011;17139;52.140;11.636;2023-06-04T09:31:02;1.27;;;0.93;;
9424;SDS011;17139;52.140;11.636;2023-06-04T09:33:29;1.10;;;1.10;;
9424;SDS011;17139;52.140;11.636;2023-06-04T09:35:56;1.10;;;0.93;;
9424;SDS011;17139;52.140;11.636;2023-06-04T09:38:31;1.00;;;1.00;;
9424;SDS011;17139;52.140;11.636;2023-06-04T09:41:00;3.40;;;1.00;;
9424;SDS011;17139;52.140;11.636;2023-06-04T09:43:29;1.25;;;1.25;;
9424;SDS011;17139;52.140;11.636;2023-06-04T09:46:07;1.98;;;1.13;;
9424;SDS011;17139;52.140;11.636;2023-06-04T09:48:36;0.93;;;0.93;;
9424;SDS011;17139;52.140;11.636;2023-06-04T09:51:06;3.23;;;1.00;;
9424;SDS011;17139;52.140;11.636;2023-06-04T09:53:36;1.13;;;1.13;;
9424;SDS011;17139;52.140;11.636;2023-06-04T09:56:04;1.00;;;1.00;;
9424;SDS011;17139;52.140;11.636;2023-06-04T09:58:34;0.90;;;0.90;;
9424;SDS011;17139;52.140;11.636;2023-06-04T10:01:02;1.15;;;1.15;;
9424;SDS011;17139;52.140;11.636;2023-06-04T10:03:31;0.80;;;0.80;;
9424;SDS011;17139;52.140;11.636;2023-06-04T10:05:59;1.00;;;1.00;;
9424;SDS011;17139;52.140;11.636;2023-06-04T10:08:29;0.90;;;0.90;;
9424;SDS011;17139;52.140;11.636;2023-06-04T10:10:58;0.82;;;0.80;;
9424;SDS011;17139;52.140;11.636;2023-06-04T10:13:27;1.00;;;1.00;;
9424;SDS011;17139;52.140;11.636;2023-06-04T10:15:56;1.10;;;1.10;;
9424;SDS011;17139;52.140;11.636;2023-06-04T10:18:24;0.90;;;0.90;;
9424;SDS011;17139;52.140;11.636;2023-06-04T10:20:54;0.90;;;0.90;;
9424;SDS011;17139;52.140;11.636;2023-06-04T10:23:22;1.38;;;0.98;;
9424;SDS011;17139;52.140;11.636;2023-06-04T10:25:50;1.10;;;1.10;;
9424;SDS011;17139;52.140;11.636;2023-06-04T10:28:20;1.10;;;1.00;;
9424;SDS011;17139;52.140;11.636;2023-06-04T10:30:48;1.42;;;1.10;;
9424;SDS011;17139;52.140;11.636;2023-06-04T10:33:17;1.77;;;1.20;;
9424;SDS011;17139;52.140;11.636;2023-06-04T10:35:49;1.33;;;1.33;;
9424;SDS011;17139;52.140;11.636;2023-06-04T10:38:16;2.40;;;1.10;;
9424;SDS011;17139;52.140;11.636;2023-06-04T10:40:45;1.10;;;1.10;;
9424;SDS011;17139;52.140;11.636;2023-06-04T10:43:13;0.93;;;0.88;;
9424;SDS011;17139;52.140;11.636;2023-06-04T10:45:44;1.08;;;1.08;;
9424;SDS011;17139;52.140;11.636;2023-06-04T10:48:12;1.10;;;1.10;;
9424;SDS011;17139;52.140;11.636;2023-06-04T10:50:48;1.10;;;1.10;;
9424;SDS011;17139;52.140;11.636;2023-06-04T10:53:17;1.08;;;1.08;;
9424;SDS011;17139;52.140;11.636;2023-06-04T10:55:45;1.00;;;1.00;;
9424;SDS011;17139;52.140;11.636;2023-06-04T10:58:13;0.65;;;0.65;;
9424;SDS011;17139;52.140;11.636;2023-06-04T11:00:41;1.13;;;1.13;;
9424;SDS011;17139;52.140;11.636;2023-06-04T11:03:14;3.83;;;0.80;;
9424;SDS011;17139;52.140;11.636;2023-06-04T11:05:41;1.15;;;1.15;;
9424;SDS011;17139;52.140;11.636;2023-06-04T11:08:09;1.00;;;1.00;;
9424;SDS011;17139;52.140;11.636;2023-06-04T11:10:38;1.20;;;1.10;;
9424;SDS011;17139;52.140;11.636;2023-06-04T11:13:06;0.90;;;0.90;;
9424;SDS011;17139;52.140;11.636;2023-06-04T11:15:40;1.23;;;1.13;;
9424;SDS011;17139;52.140;11.636;2023-06-04T11:18:12;1.95;;;1.30;;
9424;SDS011;17139;52.140;11.636;2023-06-04T11:20:40;1.20;;;1.20;;
9424;SDS011;17139;52.140;11.636;2023-06-04T11:23:08;1.40;;;1.40;;
9424;SDS011;17139;52.140;11.636;2023-06-04T11:25:39;1.20;;;1.20;;
9424;SDS011;17139;52.140;11.636;2023-06-04T11:28:07;1.07;;;1.07;;
9424;SDS011;17139;52.140;11.636;2023-06-04T11:30:40;1.77;;;0.80;;
9424;SDS011;17139;52.140;11.636;2023-06-04T11:33:07;1.00;;;1.00;;
9424;SDS011;17139;52.140;11.636;2023-06-04T11:35:40;1.55;;;1.45;;
9424;SDS011;17139;52.140;11.636;2023-06-04T11:38:08;1.50;;;1.10;;
9424;SDS011;17139;52.140;11.636;2023-06-04T11:40:35;1.00;;;1.00;;
9424;SDS011;17139;52.140;11.636;2023-06-04T11:43:02;1.20;;;1.20;;
9424;SDS011;17139;52.140;11.636;2023-06-04T11:45:30;1.38;;;1.17;;
9424;SDS011;17139;52.140;11.636;2023-06-04T11:47:57;1.10;;;1.10;;
9424;SDS011;17139;52.140;11.636;2023-06-04T11:50:26;1.17;;;1.17;;
9424;SDS011;17139;52.140;11.636;2023-06-04T11:52:55;2.67;;;1.27;;
9424;SDS011;17139;52.140;11.636;2023-06-04T11:55:22;1.10;;;1.10;;
9424;SDS011;17139;52.140;11.636;2023-06-04T11:57:50;1.00;;;1.00;;
9424;SDS011;17139;52.140;11.636;2023-06-04T12:00:17;1.63;;;1.17;;
9424;SDS011;17139;52.140;11.636;2023-06-04T12:02:49;1.00;;;1.00;;
9424;SDS011;17139;52.140;11.636;2023-06-04T12:05:19;0.90;;;0.90;;
9424;SDS011;17139;52.140;11.636;2023-06-04T12:07:48;1.55;;;1.20;;
9424;SDS011;17139;52.140;11.636;2023-06-04T12:10:18;1.10;;;1.10;;
9424;SDS011;17139;52.140;11.636;2023-06-04T12:12:45;3.50;;;1.00;;
9424;SDS011;17139;52.140;11.636;2023-06-04T12:15:18;1.00;;;1.00;;
9424;SDS011;17139;52.140;11.636;2023-06-04T12:17:48;0.90;;;0.90;;
9424;SDS011;17139;52.140;11.636;2023-06-04T12:20:16;1.10;;;1.10;;
9424;SDS011;17139;52.140;11.636;2023-06-04T12:22:44;1.20;;;1.20;;
9424;SDS011;17139;52.140;11.636;2023-06-04T12:25:12;1.10;;;1.10;;
9424;SDS011;17139;52.140;11.636;2023-06-04T12:27:52;1.10;;;1.10;;
9424;SDS011;17139;52.140;11.636;2023-06-04T12:30:19;1.10;;;1.10;;
9424;SDS011;17139;52.140;11.636;2023-06-04T12:32:47;0.90;;;0.90;;
9424;SDS011;17139;52.140;11.636;2023-06-04T12:35:15;0.82;;;0.82;;
9424;SDS011;17139;52.140;11.636;2023-06-04T12:37:42;1.08;;;1.08;;
9424;SDS011;17139;52.140;11.636;2023-06-04T12:40:10;1.10;;;1.10;;
9424;SDS011;17139;52.140;11.636;2023-06-04T12:42:39;1.17;;;1.17;;
9424;SDS011;17139;52.140;11.636;2023-06-04T12:45:08;1.05;;;1.05;;
9424;SDS011;17139;52.140;11.636;2023-06-04T12:47:36;1.10;;;1.10;;
9424;SDS011;17139;52.140;11.636;2023-06-04T12:50:04;1.10;;;1.10;;
9424;SDS011;17139;52.140;11.636;2023-06-04T12:52:31;1.13;;;1.13;;
9424;SDS011;17139;52.140;11.636;2023-06-04T12:54:58;0.90;;;0.90;;
9424;SDS011;17139;52.140;11.636;2023-06-04T12:57:25;1.00;;;1.00;;
9424;SDS011;17139;52.140;11.636;2023-06-04T12:59:54;1.30;;;1.20;;
9424;SDS011;17139;52.140;11.636;2023-06-04T13:02:22;1.70;;;1.10;;
9424;SDS011;17139;52.140;11.636;2023-06-04T13:04:49;1.10;;;1.08;;
9424;SDS011;17139;52.140;11.636;2023-06-04T13:07:21;1.20;;;1.20;;
9424;SDS011;17139;52.140;11.636;2023-06-04T13:09:48;1.25;;;1.13;;
9424;SDS011;17139;52.140;11.636;2023-06-04T13:12:15;1.10;;;1.10;;
9424;SDS011;17139;52.140;11.636;2023-06-04T13:14:42;0.88;;;0.88;;
9424;SDS011;17139;52.140;11.636;2023-06-04T13:17:10;1.05;;;1.05;;
9424;SDS011;17139;52.140;11.636;2023-06-04T13:19:37;1.00;;;0.95;;
9424;SDS011;17139;52.140;11.636;2023-06-04T13:22:04;3.13;;;1.33;;
9424;SDS011;17139;52.140;11.636;2023-06-04T13:24:31;1.17;;;1.17;;
9424;SDS011;17139;52.140;11.636;2023-06-04T13:26:58;1.20;;;1.10;;
9424;SDS011;17139;52.140;11.636;2023-06-04T13:29:25;1.02;;;1.02;;
9424;SDS011;17139;52.140;11.636;2023-06-04T13:31:52;1.20;;;1.20;;
9424;SDS011;17139;52.140;11.636;2023-06-04T13:34:21;1.10;;;1.10;;
9424;SDS011;17139;52.140;11.636;2023-06-04T13:36:48;1.35;;;1.30;;
9424;SDS011;17139;52.140;11.636;2023-06-04T13:39:15;0.93;;;0.93;;
9424;SDS011;17139;52.140;11.636;2023-06-04T13:41:42;1.43;;;1.43;;
9424;SDS011;17139;52.140;11.636;2023-06-04T13:44:09;1.02;;;1.02;;
9424;SDS011;17139;52.140;11.636;2023-06-04T13:46:36;0.98;;;0.98;;
9424;SDS011;17139;52.140;11.636;2023-06-04T13:49:03;1.08;;;1.08;;
9424;SDS011;17139;52.140;11.636;2023-06-04T13:51:32;1.05;;;1.05;;
9424;SDS011;17139;52.140;11.636;2023-06-04T13:53:59;1.20;;;1.20;;
9424;SDS011;17139;52.140;11.636;2023-06-04T13:56:26;1.45;;;1.45;;
9424;SDS011;17139;52.140;11.636;2023-06-04T13:58:52;12.45;;;1.30;;
9424;SDS011;17139;52.140;11.636;2023-06-04T14:01:19;3.40;;;1.45;;
9424;SDS011;17139;52.140;11.636;2023-06-04T14:03:47;1.15;;;1.13;;
9424;SDS011;17139;52.140;11.636;2023-06-04T14:06:14;1.38;;;1.30;;
9424;SDS011;17139;52.140;11.636;2023-06-04T14:08:42;1.10;;;1.10;;
9424;SDS011;17139;52.140;11.636;2023-06-04T14:11:09;1.67;;;1.23;;
9424;SDS011;17139;52.140;11.636;2023-06-04T14:13:37;1.08;;;1.08;;
9424;SDS011;17139;52.140;11.636;2023-06-04T14:16:06;1.02;;;1.02;;
9424;SDS011;17139;52.140;11.636;2023-06-04T14:18:33;1.30;;;1.30;;
9424;SDS011;17139;52.140;11.636;2023-06-04T14:21:00;1.10;;;1.10;;
9424;SDS011;17139;52.140;11.636;2023-06-04T14:23:27;1.00;;;1.00;;
9424;SDS011;17139;52.140;11.636;2023-06-04T14:25:55;1.17;;;1.17;;
9424;SDS011;17139;52.140;11.636;2023-06-04T14:28:22;1.13;;;1.13;;
9424;SDS011;17139;52.140;11.636;2023-06-04T14:30:49;1.15;;;1.15;;
9424;SDS011;17139;52.140;11.636;2023-06-04T14:33:16;1.42;;;1.42;;
9424;SDS011;17139;52.140;11.636;2023-06-04T14:35:44;1.58;;;1.52;;
9424;SDS011;17139;52.140;11.636;2023-06-04T14:38:11;1.20;;;1.20;;
9424;SDS011;17139;52.140;11.636;2023-06-04T14:40:39;1.23;;;1.20;;
9424;SDS011;17139;52.140;11.636;2023-06-04T14:43:09;1.30;;;1.20;;
9424;SDS011;17139;52.140;11.636;2023-06-04T14:45:37;1.15;;;1.15;;
9424;SDS011;17139;52.140;11.636;2023-06-04T14:48:04;1.38;;;1.38;;
9424;SDS011;17139;52.140;11.636;2023-06-04T14:50:32;1.10;;;1.10;;
9424;SDS011;17139;52.140;11.636;2023-06-04T14:52:59;1.10;;;1.10;;